Time;durP1;ratioP1;P1;durP2;ratioP2;P2;SDS_P1;SDS_P2;PMS_P1;PMS_P2;Temp;Humidity;BMP_temperature;BMP_pressure;BME280_temperature;BME280_humidity;BME280_pressure;Samples;Min_cycle;Max_cycle;Signal;HPM_P1;HPM_P2
2024/01/21 00:00:45;;;;;;;;;;;;;;;-0.18;89.18;102246.22;5118828;28;19920;-72
2024/01/21 00:03:10;;;;;;;;;;;;;;;-0.18;89.23;102239.41;5107600;28;20116;-72
2024/01/21 00:05:35;;;;;;;;;;;;;;;-0.16;89.15;102247.13;5100641;28;20290;-72
2024/01/21 00:08:01;;;;;;;;;;;;;;;-0.15;89.34;102248.91;5098946;28;20277;-72
2024/01/21 00:10:26;;;;;;;;;;;;;;;-0.17;89.10;102250.56;5099372;28;19920;-72
2024/01/21 00:12:51;;;;;;;;;;;;;;;-0.21;88.13;102250.47;5098411;28;19927;-72
2024/01/21 00:15:16;;;;;;;;;;;;;;;-0.20;88.07;102239.34;5098013;28;19979;-72
2024/01/21 00:17:42;;;;;;;;;;;;;;;-0.16;88.21;102232.59;5096954;28;19966;-72
2024/01/21 00:20:07;;;;;;;;;;;;;;;-0.15;88.46;102230.88;5094378;28;20247;-72
2024/01/21 00:22:32;;;;;;;;;;;;;;;-0.13;88.58;102214.59;5093166;28;20534;-72
2024/01/21 00:24:57;;;;;;;;;;;;;;;-0.12;88.91;102200.06;5094599;28;20219;-72
2024/01/21 00:27:23;;;;;;;;;;;;;;;-0.10;88.93;102198.38;5094762;28;20215;-72
2024/01/21 00:29:48;;;;;;;;;;;;;;;-0.12;88.73;102184.59;5095271;28;20251;-72
2024/01/21 00:32:13;;;;;;;;;;;;;;;-0.11;88.82;102178.59;5094432;28;19926;-72
2024/01/21 00:34:38;;;;;;;;;;;;;;;-0.11;89.00;102170.88;5095272;28;19941;-72
2024/01/21 00:37:04;;;;;;;;;;;;;;;-0.09;89.23;102161.47;5095025;28;19950;-72
2024/01/21 00:39:29;;;;;;;;;;;;;;;-0.10;89.30;102155.47;5094898;28;20087;-72
2024/01/21 00:41:55;;;;;;;;;;;;;;;-0.08;89.41;102151.22;5095107;28;20309;-72
2024/01/21 00:44:20;;;;;;;;;;;;;;;-0.09;89.39;102139.19;5094470;28;20195;-72
2024/01/21 00:46:47;;;;;;;;;;;;;;;-0.05;89.44;102135.00;5094129;28;19920;-72
2024/01/21 00:49:12;;;;;;;;;;;;;;;-0.04;89.81;102126.41;5093968;28;19943;-72
2024/01/21 00:51:37;;;;;;;;;;;;;;;-0.16;86.37;102129.56;5094793;28;19990;-72
2024/01/21 00:54:03;;;;;;;;;;;;;;;-0.15;85.75;102112.41;5094139;28;19920;-72
2024/01/21 00:56:28;;;;;;;;;;;;;;;-0.14;86.08;102112.47;5094948;28;20228;-72
2024/01/21 00:58:54;;;;;;;;;;;;;;;-0.10;86.35;102115.97;5093650;28;19955;-72
2024/01/21 01:01:19;;;;;;;;;;;;;;;-0.12;86.52;102110.78;5094529;28;19920;-72
2024/01/21 01:03:44;;;;;;;;;;;;;;;-0.10;86.59;102103.09;5112106;28;19998;-72
2024/01/21 01:06:09;;;;;;;;;;;;;;;-0.09;86.77;102094.53;5114769;28;20188;-72
2024/01/21 01:08:34;;;;;;;;;;;;;;;-0.11;86.59;102093.63;5114812;28;19966;-72
2024/01/21 01:11:00;;;;;;;;;;;;;;;-0.12;86.62;102094.47;5114039;28;19923;-72
2024/01/21 01:13:25;;;;;;;;;;;;;;;-0.13;86.10;102087.56;5113936;28;19919;-72
2024/01/21 01:15:50;;;;;;;;;;;;;;;-0.13;86.19;102092.72;5114488;28;19992;-72
2024/01/21 01:18:15;;;;;;;;;;;;;;;-0.14;85.82;102091.00;5114771;28;19941;-72
2024/01/21 01:20:41;;;;;;;;;;;;;;;-0.14;86.04;102081.56;5116338;28;19953;-72
2024/01/21 01:23:06;;;;;;;;;;;;;;;-0.12;86.53;102084.16;5115919;28;19927;-72
2024/01/21 01:25:31;;;;;;;;;;;;;;;-0.13;86.73;102088.41;5115404;28;20257;-72
2024/01/21 01:27:56;;;;;;;;;;;;;;;-0.12;87.13;102072.16;5115515;28;19920;-72
2024/01/21 01:30:22;;;;;;;;;;;;;;;-0.15;86.13;102068.63;5115365;28;19941;-72
2024/01/21 01:32:47;;;;;;;;;;;;;;;-0.18;84.92;102072.03;5116320;28;19911;-72
2024/01/21 01:35:12;;;;;;;;;;;;;;;-0.18;84.50;102064.31;5115756;28;20254;-72
2024/01/21 01:37:37;;;;;;;;;;;;;;;-0.21;84.60;102065.06;5116202;28;19920;-72
2024/01/21 01:40:03;;;;;;;;;;;;;;;-0.16;84.92;102067.78;5114912;28;20010;-72
2024/01/21 01:42:29;;;;;;;;;;;;;;;-0.16;84.73;102062.63;5115534;28;19924;-72
2024/01/21 01:44:54;;;;;;;;;;;;;;;-0.15;84.58;102050.63;5115385;28;19950;-72
2024/01/21 01:47:19;;;;;;;;;;;;;;;-0.10;85.39;102055.03;5115781;28;20401;-72
2024/01/21 01:49:45;;;;;;;;;;;;;;;-0.17;84.60;102053.16;5116333;28;20445;-72
2024/01/21 01:52:12;;;;;;;;;;;;;;;-0.15;84.51;102045.47;5115241;28;19920;-70
2024/01/21 01:54:39;;;;;;;;;;;;;;;-0.15;84.76;102045.47;5115867;28;19920;-70
2024/01/21 01:57:06;;;;;;;;;;;;;;;-0.15;84.77;102027.44;5115085;28;19942;-70
2024/01/21 01:59:32;;;;;;;;;;;;;;;-0.18;84.59;102027.34;5115271;28;19920;-70
2024/01/21 02:01:58;;;;;;;;;;;;;;;-0.21;84.28;102018.72;5115015;28;19935;-70
2024/01/21 02:04:23;;;;;;;;;;;;;;;-0.17;84.58;102013.66;5115592;28;19932;-70
2024/01/21 02:06:49;;;;;;;;;;;;;;;-0.18;84.77;102019.63;5115515;28;20018;-70
2024/01/21 02:09:14;;;;;;;;;;;;;;;-0.18;85.22;102015.38;5115581;28;19920;-70
2024/01/21 02:11:39;;;;;;;;;;;;;;;-0.18;85.45;102005.06;5116233;28;19912;-70
2024/01/21 02:14:04;;;;;;;;;;;;;;;-0.17;85.50;101998.22;5115240;28;19930;-72
2024/01/21 02:16:30;;;;;;;;;;;;;;;-0.15;85.59;101983.66;5115220;28;19926;-72
2024/01/21 02:18:55;;;;;;;;;;;;;;;-0.15;85.73;102001.69;5114298;28;19920;-72
2024/01/21 02:21:20;;;;;;;;;;;;;;;-0.15;85.86;102002.53;5115259;28;19958;-72
2024/01/21 02:23:45;;;;;;;;;;;;;;;-0.15;85.92;101999.09;5114895;28;20316;-72
2024/01/21 02:26:11;;;;;;;;;;;;;;;-0.20;84.23;101997.31;5114771;28;19923;-72
2024/01/21 02:28:36;;;;;;;;;;;;;;;-0.20;84.49;101989.59;5115813;28;19923;-72
2024/01/21 02:31:01;;;;;;;;;;;;;;;-0.18;84.91;101983.59;5114901;28;20203;-72
2024/01/21 02:33:26;;;;;;;;;;;;;;;-0.20;85.14;101975.81;5115657;28;19920;-72
2024/01/21 02:35:52;;;;;;;;;;;;;;;-0.14;85.65;101969.97;5114657;28;20379;-72
2024/01/21 02:38:17;;;;;;;;;;;;;;;-0.12;86.09;101952.84;5115101;28;19951;-72
2024/01/21 02:40:42;;;;;;;;;;;;;;;-0.12;86.42;101951.13;5114771;28;19919;-72
2024/01/21 02:43:08;;;;;;;;;;;;;;;-0.12;86.35;101937.38;5114907;28;19995;-72
2024/01/21 02:45:34;;;;;;;;;;;;;;;-0.12;86.49;101927.94;5114885;28;19919;-72
2024/01/21 02:48:00;;;;;;;;;;;;;;;-0.10;86.79;101920.25;5114734;28;19926;-72
2024/01/21 02:50:25;;;;;;;;;;;;;;;-0.11;86.99;101919.41;5115082;28;19920;-72
2024/01/21 02:52:51;;;;;;;;;;;;;;;-0.11;87.22;101911.66;5114347;28;19919;-72
2024/01/21 02:55:16;;;;;;;;;;;;;;;-0.09;87.44;101897.13;5114633;28;20146;-72
2024/01/21 02:57:41;;;;;;;;;;;;;;;-0.07;87.58;101897.16;5115232;28;20273;-72
2024/01/21 03:00:07;;;;;;;;;;;;;;;-0.05;87.73;101898.91;5114256;28;20117;-72
2024/01/21 03:02:33;;;;;;;;;;;;;;;-0.06;88.07;101912.59;5114365;28;19924;-72
2024/01/21 03:04:58;;;;;;;;;;;;;;;-0.07;87.70;101904.88;5114996;28;19926;-70
2024/01/21 03:07:23;;;;;;;;;;;;;;;-0.07;87.82;101908.31;5114761;28;19986;-70
2024/01/21 03:09:48;;;;;;;;;;;;;;;-0.09;87.24;101902.25;5114579;28;19920;-70
2024/01/21 03:12:14;;;;;;;;;;;;;;;-0.08;86.85;101897.97;5114358;28;19919;-70
2024/01/21 03:14:39;;;;;;;;;;;;;;;-0.07;87.08;101895.44;5097102;28;19920;-70
2024/01/21 03:17:04;;;;;;;;;;;;;;;-0.07;87.47;101892.00;5114292;28;19923;-70
2024/01/21 03:19:29;;;;;;;;;;;;;;;-0.11;87.22;101890.19;5114152;28;19987;-70
2024/01/21 03:21:55;;;;;;;;;;;;;;;-0.10;87.35;101897.94;5114220;28;19919;-70
2024/01/21 03:24:20;;;;;;;;;;;;;;;-0.10;87.41;101879.91;5114057;28;19911;-70
2024/01/21 03:26:45;;;;;;;;;;;;;;;-0.08;87.52;101879.94;5114565;28;20126;-70
2024/01/21 03:29:10;;;;;;;;;;;;;;;-0.08;87.77;101878.22;5114078;28;19911;-70
2024/01/21 03:31:35;;;;;;;;;;;;;;;-0.10;87.29;101879.06;5113722;28;20000;-70
2024/01/21 03:34:03;;;;;;;;;;;;;;;-0.12;86.48;101871.28;5114111;28;19945;-70
2024/01/21 03:36:28;;;;;;;;;;;;;;;-0.11;86.67;101867.91;5114150;28;20496;-70
2024/01/21 03:38:54;;;;;;;;;;;;;;;-0.11;86.37;101870.47;5113537;28;19959;-72
2024/01/21 03:41:19;;;;;;;;;;;;;;;-0.11;86.36;101862.75;5112614;28;19950;-72
2024/01/21 03:43:44;;;;;;;;;;;;;;;-0.07;86.49;101863.69;5113366;28;19920;-72
2024/01/21 03:46:09;;;;;;;;;;;;;;;-0.07;86.66;101867.09;5112829;28;19950;-72
2024/01/21 03:48:35;;;;;;;;;;;;;;;-0.08;86.44;101864.50;5113649;28;19920;-70
2024/01/21 03:51:00;;;;;;;;;;;;;;;-0.07;86.03;101871.41;5112090;28;20130;-70
2024/01/21 03:53:25;;;;;;;;;;;;;;;-0.04;85.60;101862.03;5114407;28;19983;-70
2024/01/21 03:55:51;;;;;;;;;;;;;;;0.02;85.73;101832.06;5116043;28;19923;-70
2024/01/21 03:58:16;;;;;;;;;;;;;;;0.01;85.19;101817.44;5116787;28;19931;-70
2024/01/21 04:00:41;;;;;;;;;;;;;;;0.03;85.92;101803.75;5116669;28;20227;-70
2024/01/21 04:03:06;;;;;;;;;;;;;;;0.06;86.56;101816.69;5115413;28;20029;-70
2024/01/21 04:05:31;;;;;;;;;;;;;;;0.07;86.90;101813.25;5116199;28;19973;-70
2024/01/21 04:07:59;;;;;;;;;;;;;;;0.07;87.09;101815.84;5110072;28;19926;-70
2024/01/21 04:10:24;;;;;;;;;;;;;;;0.05;86.68;101814.09;5111262;28;19954;-70
2024/01/21 04:12:49;;;;;;;;;;;;;;;0.08;87.07;101803.84;5115776;28;19919;-70
2024/01/21 04:15:14;;;;;;;;;;;;;;;0.03;85.73;101826.06;5116336;28;19915;-70
2024/01/21 04:17:40;;;;;;;;;;;;;;;0.04;85.20;101836.41;5116818;28;19968;-70
2024/01/21 04:20:07;;;;;;;;;;;;;;;0.09;85.27;101801.31;5115876;28;19924;-70
2024/01/21 04:22:33;;;;;;;;;;;;;;;0.09;85.67;101806.47;5115922;28;20116;-70
2024/01/21 04:24:58;;;;;;;;;;;;;;;0.12;85.97;101805.63;5115139;28;19969;-70
2024/01/21 04:27:23;;;;;;;;;;;;;;;0.12;85.50;101800.47;5116058;28;20271;-72
2024/01/21 04:29:48;;;;;;;;;;;;;;;0.10;85.52;101791.88;5116048;28;19924;-72
2024/01/21 04:32:14;;;;;;;;;;;;;;;0.10;84.32;101797.00;5108688;28;20274;-72
2024/01/21 04:34:39;;;;;;;;;;;;;;;0.10;84.12;101795.28;5115369;28;19923;-72
2024/01/21 04:37:04;;;;;;;;;;;;;;;0.09;83.85;101798.72;5114976;28;20247;-72
2024/01/21 04:39:29;;;;;;;;;;;;;;;0.12;83.28;101780.72;5116049;28;19916;-72
2024/01/21 04:41:55;;;;;;;;;;;;;;;0.17;83.69;101804.00;5115584;28;19923;-72
2024/01/21 04:44:20;;;;;;;;;;;;;;;0.17;83.29;101809.16;5115825;28;19940;-72
2024/01/21 04:46:45;;;;;;;;;;;;;;;0.16;81.94;101810.88;5115970;28;20231;-72
2024/01/21 04:49:10;;;;;;;;;;;;;;;0.18;82.10;101796.31;5115626;28;19919;-72
2024/01/21 04:51:36;;;;;;;;;;;;;;;0.26;82.85;101777.53;5116015;28;19916;-72
2024/01/21 04:54:01;;;;;;;;;;;;;;;0.27;82.98;101774.97;5114924;28;19926;-72
2024/01/21 04:56:27;;;;;;;;;;;;;;;0.32;83.34;101790.53;5115540;28;19924;-72
2024/01/21 04:58:52;;;;;;;;;;;;;;;0.30;83.30;101775.03;5114835;28;20212;-72
2024/01/21 05:01:20;;;;;;;;;;;;;;;0.31;83.07;101763.88;5115736;28;19955;-72
2024/01/21 05:03:45;;;;;;;;;;;;;;;0.32;83.02;101741.56;5114705;28;19938;-72
2024/01/21 05:06:10;;;;;;;;;;;;;;;0.33;83.47;101730.41;5115799;28;19990;-72
2024/01/21 05:08:35;;;;;;;;;;;;;;;0.34;84.14;101707.22;5115190;28;19938;-72
2024/01/21 05:11:00;;;;;;;;;;;;;;;0.38;84.37;101698.72;5115150;28;19983;-72
2024/01/21 05:13:26;;;;;;;;;;;;;;;0.38;84.62;101727.06;5115531;28;19919;-72
2024/01/21 05:15:51;;;;;;;;;;;;;;;0.34;82.66;101730.41;5114945;28;20150;-72
2024/01/21 05:18:16;;;;;;;;;;;;;;;0.39;83.09;101689.28;5114955;28;19942;-72
2024/01/21 05:20:43;;;;;;;;;;;;;;;0.41;83.42;101699.59;5115553;28;19982;-72
2024/01/21 05:23:08;;;;;;;;;;;;;;;0.39;83.50;101686.69;5114872;28;19998;-72
2024/01/21 05:25:33;;;;;;;;;;;;;;;0.36;82.94;101712.41;5114928;28;20249;-72
2024/01/21 05:27:59;;;;;;;;;;;;;;;0.32;82.58;101672.84;5114622;28;19919;-72
2024/01/21 05:30:24;;;;;;;;;;;;;;;0.30;81.83;101692.56;5114755;28;19951;-72
2024/01/21 05:32:51;;;;;;;;;;;;;;;0.32;82.35;101706.34;5114266;28;19919;-72
2024/01/21 05:35:16;;;;;;;;;;;;;;;0.33;82.75;101705.50;5114914;28;20231;-72
2024/01/21 05:37:41;;;;;;;;;;;;;;;0.37;83.26;101709.88;5114924;28;19927;-72
2024/01/21 05:40:07;;;;;;;;;;;;;;;0.33;82.90;101728.72;5114085;28;19926;-72
2024/01/21 05:42:32;;;;;;;;;;;;;;;0.38;81.95;101736.50;5114405;28;19919;-72
2024/01/21 05:44:57;;;;;;;;;;;;;;;0.39;82.45;101738.25;5113537;28;19950;-72
2024/01/21 05:47:22;;;;;;;;;;;;;;;0.34;81.51;101732.13;5114889;28;20172;-72
2024/01/21 05:49:48;;;;;;;;;;;;;;;0.38;82.08;101708.16;5114395;28;20149;-72
2024/01/21 05:52:13;;;;;;;;;;;;;;;0.46;82.66;101724.59;5114220;28;20235;-72
2024/01/21 05:54:39;;;;;;;;;;;;;;;0.46;82.38;101742.66;5114908;28;20134;-72
2024/01/21 05:57:04;;;;;;;;;;;;;;;0.47;82.31;101736.63;5114075;28;19927;-72
2024/01/21 05:59:29;;;;;;;;;;;;;;;0.41;82.33;101730.53;5114204;28;19911;-72
2024/01/21 06:01:55;;;;;;;;;;;;;;;0.37;82.35;101738.22;5113744;28;20380;-72
2024/01/21 06:04:20;;;;;;;;;;;;;;;0.35;82.63;101737.31;5113951;28;19987;-72
2024/01/21 06:06:45;;;;;;;;;;;;;;;0.34;83.11;101727.00;5114412;28;19919;-72
2024/01/21 06:09:11;;;;;;;;;;;;;;;0.37;83.03;101747.66;5113452;28;19920;-72
2024/01/21 06:11:36;;;;;;;;;;;;;;;0.39;82.92;101733.09;5114285;28;20277;-72
2024/01/21 06:14:01;;;;;;;;;;;;;;;0.44;83.33;101740.88;5113083;28;20293;-72
2024/01/21 06:16:26;;;;;;;;;;;;;;;0.42;83.47;101725.41;5113302;28;19942;-72
2024/01/21 06:18:52;;;;;;;;;;;;;;;0.41;82.88;101721.09;5113299;28;19974;-72
2024/01/21 06:21:17;;;;;;;;;;;;;;;0.43;83.24;101752.03;5113910;28;19919;-72
2024/01/21 06:23:43;;;;;;;;;;;;;;;0.43;83.15;101759.78;5113734;28;19934;-72
2024/01/21 06:26:15;;;;;;;;;;;;;;;0.46;83.67;101744.38;5113543;28;19912;-72
2024/01/21 06:28:40;;;;;;;;;;;;;;;0.51;84.10;101715.22;5110700;28;20131;-72
2024/01/21 06:31:06;;;;;;;;;;;;;;;0.56;84.87;101694.66;5113139;28;20158;-72
2024/01/21 06:33:31;;;;;;;;;;;;;;;0.50;84.89;101679.13;5113611;28;19927;-72
2024/01/21 06:35:56;;;;;;;;;;;;;;;0.47;84.28;101685.09;5112962;28;19920;-72
2024/01/21 06:38:22;;;;;;;;;;;;;;;0.45;84.42;101642.97;5113779;28;20319;-72
2024/01/21 06:40:48;;;;;;;;;;;;;;;0.48;84.91;101635.28;5112710;28;20525;-72
2024/01/21 06:43:14;;;;;;;;;;;;;;;0.45;84.44;101640.38;5113167;28;20123;-72
2024/01/21 06:45:39;;;;;;;;;;;;;;;0.49;84.88;101649.03;5113681;28;19931;-72
2024/01/21 06:48:05;;;;;;;;;;;;;;;0.49;84.87;101664.50;5113188;28;19920;-72
2024/01/21 06:50:30;;;;;;;;;;;;;;;0.46;84.79;101646.44;5113384;28;20265;-72
2024/01/21 06:52:55;;;;;;;;;;;;;;;0.43;84.79;101630.91;5112952;28;20174;-72
2024/01/21 06:55:20;;;;;;;;;;;;;;;0.48;85.17;101642.16;5113331;28;20208;-72
2024/01/21 06:57:46;;;;;;;;;;;;;;;0.43;85.08;101639.50;5113275;28;19924;-72
2024/01/21 07:00:11;;;;;;;;;;;;;;;0.40;85.44;101642.06;5113328;28;19954;-72
2024/01/21 07:02:36;;;;;;;;;;;;;;;0.43;85.46;101661.84;5112906;28;19927;-72
2024/01/21 07:05:02;;;;;;;;;;;;;;;0.43;85.07;101661.84;5112865;28;20756;-72
2024/01/21 07:07:27;;;;;;;;;;;;;;;0.42;85.34;101673.88;5113252;28;19986;-72
2024/01/21 07:09:52;;;;;;;;;;;;;;;0.38;84.54;101687.53;5112939;28;19912;-72
2024/01/21 07:12:17;;;;;;;;;;;;;;;0.42;84.73;101688.44;5113193;28;19955;-72
2024/01/21 07:14:43;;;;;;;;;;;;;;;0.42;84.61;101685.88;5113180;28;19911;-72
2024/01/21 07:17:09;;;;;;;;;;;;;;;0.40;84.28;101690.13;5113086;28;19951;-72
2024/01/21 07:19:34;;;;;;;;;;;;;;;0.40;83.77;101708.16;5113316;28;20183;-72
2024/01/21 07:21:59;;;;;;;;;;;;;;;0.37;84.58;101711.59;5112769;28;19961;-72
2024/01/21 07:24:25;;;;;;;;;;;;;;;0.34;84.92;101716.69;5112320;28;19923;-72
2024/01/21 07:26:50;;;;;;;;;;;;;;;0.34;85.35;101714.09;5113647;28;19916;-72
2024/01/21 07:29:16;;;;;;;;;;;;;;;0.37;85.14;101714.16;5116836;28;19922;-72
2024/01/21 07:31:41;;;;;;;;;;;;;;;0.40;85.67;101709.06;5117768;28;20179;-72
2024/01/21 07:34:10;;;;;;;;;;;;;;;0.47;86.31;101715.16;5098359;28;20104;-72
2024/01/21 07:36:35;;;;;;;;;;;;;;;0.48;85.37;101714.31;5117172;28;19920;-72
2024/01/21 07:39:00;;;;;;;;;;;;;;;0.45;85.55;101722.00;5116281;28;19915;-72
2024/01/21 07:41:26;;;;;;;;;;;;;;;0.47;85.24;101744.38;5117385;28;19951;-72
2024/01/21 07:43:51;;;;;;;;;;;;;;;0.44;84.98;101736.59;5116256;28;20253;-72
2024/01/21 07:46:16;;;;;;;;;;;;;;;0.50;86.23;101735.81;5117345;28;20241;-72
2024/01/21 07:48:42;;;;;;;;;;;;;;;0.49;86.19;101718.63;5116524;28;19919;-72
2024/01/21 07:51:07;;;;;;;;;;;;;;;0.55;86.52;101721.31;5115993;28;20201;-72
2024/01/21 07:53:32;;;;;;;;;;;;;;;0.52;86.91;101716.94;5098280;28;20207;-72
2024/01/21 07:55:57;;;;;;;;;;;;;;;0.64;87.46;101729.16;5116228;28;19951;-72
2024/01/21 07:58:23;;;;;;;;;;;;;;;0.67;87.46;101728.34;5116753;28;19926;-72
2024/01/21 08:00:48;;;;;;;;;;;;;;;0.66;87.82;101736.94;5098158;28;19951;-72
2024/01/21 08:03:13;;;;;;;;;;;;;;;0.63;88.02;101753.19;5115564;28;19931;-72
2024/01/21 08:05:39;;;;;;;;;;;;;;;0.62;88.06;101750.59;5117301;28;19974;-72
2024/01/21 08:08:04;;;;;;;;;;;;;;;0.65;88.68;101755.81;5097067;28;19919;-72
2024/01/21 08:10:29;;;;;;;;;;;;;;;0.68;89.08;101738.69;5116136;28;20233;-72
2024/01/21 08:12:54;;;;;;;;;;;;;;;0.69;88.81;101742.09;5116131;28;19915;-72
2024/01/21 08:15:20;;;;;;;;;;;;;;;0.70;89.92;101747.28;5115506;28;20243;-72
2024/01/21 08:17:45;;;;;;;;;;;;;;;0.70;90.06;101767.91;5116318;28;20288;-70
2024/01/21 08:20:11;;;;;;;;;;;;;;;0.78;90.29;101768.03;5115661;28;20227;-72
2024/01/21 08:22:37;;;;;;;;;;;;;;;0.79;91.04;101769.78;5116019;28;19919;-72
2024/01/21 08:25:03;;;;;;;;;;;;;;;0.85;91.13;101769.00;5114154;28;19931;-72
2024/01/21 08:27:28;;;;;;;;;;;;;;;0.86;91.27;101769.03;5116018;28;20189;-72
2024/01/21 08:29:53;;;;;;;;;;;;;;;0.87;91.92;101778.47;5115125;28;19920;-72
2024/01/21 08:32:19;;;;;;;;;;;;;;;0.90;92.09;101768.22;5114960;28;19916;-72
2024/01/21 08:34:44;;;;;;;;;;;;;;;0.94;92.23;101776.84;5114741;28;19990;-72
2024/01/21 08:37:10;;;;;;;;;;;;;;;0.93;92.49;101780.31;5115113;28;20108;-72
2024/01/21 08:39:35;;;;;;;;;;;;;;;0.96;93.22;101788.06;5115185;28;19920;-72
2024/01/21 08:42:00;;;;;;;;;;;;;;;0.97;93.45;101779.50;5114854;28;20205;-72
2024/01/21 08:44:25;;;;;;;;;;;;;;;0.99;93.83;101788.13;5114662;28;19923;-72
2024/01/21 08:46:51;;;;;;;;;;;;;;;0.99;94.50;101787.25;5107642;28;19920;-72
2024/01/21 08:49:16;;;;;;;;;;;;;;;0.99;95.31;101785.53;5111161;28;19919;-72
2024/01/21 08:51:41;;;;;;;;;;;;;;;1.07;95.32;101780.47;5112046;28;19930;-72
2024/01/21 08:54:07;;;;;;;;;;;;;;;1.07;95.69;101776.16;5110777;28;20014;-72
2024/01/21 08:56:32;;;;;;;;;;;;;;;1.08;95.82;101777.06;5111819;28;20048;-72
2024/01/21 08:58:57;;;;;;;;;;;;;;;1.08;96.69;101792.53;5111088;28;19919;-72
2024/01/21 09:01:23;;;;;;;;;;;;;;;1.14;96.92;101808.09;5111668;28;19958;-72
2024/01/21 09:03:48;;;;;;;;;;;;;;;1.21;97.23;101816.78;5111345;28;19924;-72
2024/01/21 09:06:13;;;;;;;;;;;;;;;1.16;97.47;101806.41;5111552;28;20064;-72
2024/01/21 09:08:39;;;;;;;;;;;;;;;1.19;97.58;101803.00;5112065;28;20204;-72
2024/01/21 09:11:05;;;;;;;;;;;;;;;1.22;97.98;101819.41;5110596;28;19922;-72
2024/01/21 09:13:30;;;;;;;;;;;;;;;1.23;98.47;101799.63;5111663;28;19982;-72
2024/01/21 09:15:55;;;;;;;;;;;;;;;1.26;98.78;101791.91;5111925;28;19922;-72
2024/01/21 09:18:22;;;;;;;;;;;;;;;1.28;99.32;101800.56;5112743;28;19916;-72
2024/01/21 09:20:47;;;;;;;;;;;;;;;1.27;100.00;101793.63;5111824;28;19920;-72
2024/01/21 09:23:12;;;;;;;;;;;;;;;1.34;100.00;101791.16;5111774;28;19926;-72
2024/01/21 09:25:38;;;;;;;;;;;;;;;1.36;100.00;101787.72;5110919;28;19920;-72
2024/01/21 09:28:05;;;;;;;;;;;;;;;1.38;100.00;101786.88;5111507;28;19937;-72
2024/01/21 09:30:30;;;;;;;;;;;;;;;1.40;100.00;101789.50;5112042;28;19919;-72
2024/01/21 09:32:55;;;;;;;;;;;;;;;1.43;100.00;101781.81;5111368;28;20166;-72
2024/01/21 09:35:21;;;;;;;;;;;;;;;1.45;100.00;101780.97;5111788;28;19998;-72
2024/01/21 09:37:46;;;;;;;;;;;;;;;1.47;100.00;101765.50;5111766;28;19931;-72
2024/01/21 09:40:11;;;;;;;;;;;;;;;1.48;100.00;101762.06;5112320;28;19957;-72
2024/01/21 09:42:37;;;;;;;;;;;;;;;1.49;100.00;101764.69;5113202;28;19943;-72
2024/01/21 09:45:02;;;;;;;;;;;;;;;1.52;100.00;101758.66;5112091;28;20406;-72
2024/01/21 09:47:27;;;;;;;;;;;;;;;1.54;100.00;101759.56;5112643;28;19916;-72
2024/01/21 09:49:53;;;;;;;;;;;;;;;1.57;100.00;101756.16;5111828;28;20250;-72
2024/01/21 09:52:18;;;;;;;;;;;;;;;1.60;100.00;101766.50;5112247;28;19915;-72
2024/01/21 09:54:45;;;;;;;;;;;;;;;1.61;100.00;101758.78;5111479;28;19930;-72
2024/01/21 09:57:12;;;;;;;;;;;;;;;1.61;100.00;101763.94;5109204;28;20084;-72
2024/01/21 09:59:38;;;;;;;;;;;;;;;1.66;100.00;101772.59;5111761;28;20009;-72
2024/01/21 10:02:03;;;;;;;;;;;;;;;1.68;100.00;101760.56;5111525;28;19916;-72
2024/01/21 10:04:29;;;;;;;;;;;;;;;1.70;100.00;101769.19;5111363;28;20177;-72
2024/01/21 10:06:55;;;;;;;;;;;;;;;1.75;100.00;101760.63;5111331;28;20199;-72
2024/01/21 10:09:23;;;;;;;;;;;;;;;1.79;100.00;101758.09;5111364;28;20099;-72
2024/01/21 10:11:49;;;;;;;;;;;;;;;1.81;100.00;101769.31;5112618;27;19978;-72
2024/01/21 10:14:15;;;;;;;;;;;;;;;1.87;100.00;101765.94;5087202;27;19946;-70
2024/01/21 10:16:41;;;;;;;;;;;;;;;1.91;100.00;101765.09;5091587;28;20220;-70
2024/01/21 10:19:07;;;;;;;;;;;;;;;1.95;100.00;101763.41;5098789;28;20123;-70
2024/01/21 10:21:32;;;;;;;;;;;;;;;1.97;100.00;101754.84;5105074;28;20263;-70
2024/01/21 10:23:57;;;;;;;;;;;;;;;1.99;100.00;101757.44;5100254;28;19947;-70
2024/01/21 10:26:22;;;;;;;;;;;;;;;1.99;100.00;101742.81;5101035;28;19923;-70
2024/01/21 10:28:47;;;;;;;;;;;;;;;2.03;100.00;101739.38;5099224;28;19924;-70
2024/01/21 10:31:13;;;;;;;;;;;;;;;2.06;100.00;101742.00;5089643;28;19946;-70
2024/01/21 10:33:42;;;;;;;;;;;;;;;2.06;100.00;101743.72;5076123;28;19927;-70
2024/01/21 10:36:08;;;;;;;;;;;;;;;2.06;100.00;101742.00;5090872;28;19931;-70
2024/01/21 10:38:36;;;;;;;;;;;;;;;2.08;100.00;101740.28;5093554;28;20219;-70
2024/01/21 10:41:03;;;;;;;;;;;;;;;2.09;100.00;101742.03;5091685;28;19920;-70
2024/01/21 10:43:29;;;;;;;;;;;;;;;2.10;100.00;101729.97;5093423;28;20828;-70
2024/01/21 10:45:54;;;;;;;;;;;;;;;2.14;100.00;101733.47;5093739;28;19926;-70
2024/01/21 10:48:20;;;;;;;;;;;;;;;2.15;100.00;101737.75;5091997;28;19927;-70
2024/01/21 10:50:46;;;;;;;;;;;;;;;2.17;100.00;101728.31;5102706;28;20230;-70
2024/01/21 10:53:12;;;;;;;;;;;;;;;2.17;100.00;101743.84;5104629;28;20195;-70
2024/01/21 10:55:40;;;;;;;;;;;;;;;2.16;100.00;101757.59;5106629;28;19926;-70
2024/01/21 10:58:06;;;;;;;;;;;;;;;2.21;100.00;101766.25;5100758;28;20358;-70
2024/01/21 11:00:32;;;;;;;;;;;;;;;2.23;100.00;101754.22;5091209;28;19927;-70
2024/01/21 11:03:15;;;;;;;;;;;;;;;2.20;100.00;101749.88;5090588;28;20124;-70
2024/01/21 11:05:41;;;;;;;;;;;;;;;2.21;100.00;101756.78;5092307;28;19931;-70
2024/01/21 11:08:06;;;;;;;;;;;;;;;2.22;100.00;101762.81;5101109;28;19924;-70
2024/01/21 11:10:35;;;;;;;;;;;;;;;2.21;100.00;101756.78;5105600;28;19920;-70
2024/01/21 11:13:00;;;;;;;;;;;;;;;2.19;100.00;101755.03;5095373;28;19926;-70
2024/01/21 11:15:31;;;;;;;;;;;;;;;2.20;100.00;101757.66;5100056;28;19951;-70
2024/01/21 11:18:09;;;;;;;;;;;;;;;2.24;100.00;101751.63;5094640;28;20268;-70
2024/01/21 11:20:35;;;;;;;;;;;;;;;2.23;100.00;101749.91;5096823;28;20306;-72
2024/01/21 11:23:00;;;;;;;;;;;;;;;2.27;100.00;101740.44;5091155;28;19951;-72
2024/01/21 11:25:31;;;;;;;;;;;;;;;2.32;100.00;101741.34;5088755;28;19959;-72
2024/01/21 11:27:57;;;;;;;;;;;;;;;2.33;100.00;101737.03;5090643;28;20127;-70
2024/01/21 11:30:24;;;;;;;;;;;;;;;2.34;100.00;101728.44;5090443;28;20001;-70
2024/01/21 11:32:57;;;;;;;;;;;;;;;2.37;100.00;101744.00;5090553;28;20147;-72
2024/01/21 11:35:22;;;;;;;;;;;;;;;2.36;100.00;101745.69;5098905;28;20200;-72
2024/01/21 11:37:52;;;;;;;;;;;;;;;2.39;100.00;101745.72;5092684;28;19924;-72
2024/01/21 11:40:18;;;;;;;;;;;;;;;2.42;100.00;101738.00;5099721;28;20138;-72
2024/01/21 11:42:45;;;;;;;;;;;;;;;2.46;100.00;101734.56;5104581;28;19951;-70
2024/01/21 11:45:11;;;;;;;;;;;;;;;2.50;100.00;101736.31;5101706;28;19919;-70
2024/01/21 11:47:37;;;;;;;;;;;;;;;2.54;100.00;101733.75;5088838;28;19935;-70
2024/01/21 11:50:02;;;;;;;;;;;;;;;2.58;100.00;101736.38;5098278;28;20334;-72
2024/01/21 11:52:31;;;;;;;;;;;;;;;2.60;100.00;101745.03;5088257;28;20195;-72
2024/01/21 11:54:57;;;;;;;;;;;;;;;2.60;100.00;101745.03;5091114;28;19919;-72
2024/01/21 11:57:22;;;;;;;;;;;;;;;2.64;100.00;101757.13;5088095;28;20166;-72
2024/01/21 11:59:48;;;;;;;;;;;;;;;2.64;100.00;101764.00;5100896;28;19928;-72
2024/01/21 12:02:13;;;;;;;;;;;;;;;2.68;100.00;101755.41;5103925;28;20259;-72
2024/01/21 12:04:38;;;;;;;;;;;;;;;2.68;100.00;101739.91;5102565;28;20484;-72
2024/01/21 12:07:04;;;;;;;;;;;;;;;2.71;100.00;101742.50;5089853;28;19920;-72
2024/01/21 12:09:29;;;;;;;;;;;;;;;2.76;100.00;101742.53;5097979;28;19920;-72
2024/01/21 12:11:55;;;;;;;;;;;;;;;2.81;100.00;101726.16;5094721;28;19930;-72
2024/01/21 12:14:21;;;;;;;;;;;;;;;2.85;100.00;101737.41;5096891;28;19920;-72
2024/01/21 12:16:49;;;;;;;;;;;;;;;2.90;100.00;101722.78;5094633;28;19959;-70
2024/01/21 12:19:15;;;;;;;;;;;;;;;2.95;100.00;101739.19;5103115;28;19919;-70
2024/01/21 12:21:42;;;;;;;;;;;;;;;2.99;100.00;101733.16;5093937;28;19920;-70
2024/01/21 12:24:07;;;;;;;;;;;;;;;3.01;100.00;101744.38;5106550;28;19958;-70
2024/01/21 12:26:33;;;;;;;;;;;;;;;3.04;100.00;101754.75;5107583;28;19951;-70
2024/01/21 12:29:05;;;;;;;;;;;;;;;3.06;100.00;101767.72;5091958;28;19935;-70
2024/01/21 12:31:31;;;;;;;;;;;;;;;3.08;100.00;101758.22;5092877;28;19973;-70